sensor_id;sensor_type;location;lat;lon;timestamp;P1;durP1;ratioP1;P2;durP2;ratioP2
73456;SDS011;61691;53.072;6.582;2023-12-28T00:01:46;10.05;;;2.67;;
73456;SDS011;61691;53.072;6.582;2023-12-28T00:04:13;13.93;;;3.55;;
73456;SDS011;61691;53.072;6.582;2023-12-28T00:06:40;13.30;;;3.30;;
73456;SDS011;61691;53.072;6.582;2023-12-28T00:09:07;13.02;;;3.13;;
73456;SDS011;61691;53.072;6.582;2023-12-28T00:11:38;15.10;;;3.60;;
73456;SDS011;61691;53.072;6.582;2023-12-28T00:14:05;13.35;;;3.20;;
73456;SDS011;61691;53.072;6.582;2023-12-28T00:16:32;15.05;;;3.60;;
73456;SDS011;61691;53.072;6.582;2023-12-28T00:18:59;14.13;;;3.47;;
73456;SDS011;61691;53.072;6.582;2023-12-28T00:21:29;15.15;;;3.38;;
73456;SDS011;61691;53.072;6.582;2023-12-28T00:23:59;11.68;;;3.10;;
73456;SDS011;61691;53.072;6.582;2023-12-28T00:26:26;12.88;;;3.42;;
73456;SDS011;61691;53.072;6.582;2023-12-28T00:28:52;14.55;;;3.60;;
73456;SDS011;61691;53.072;6.582;2023-12-28T00:31:19;15.35;;;3.55;;
73456;SDS011;61691;53.072;6.582;2023-12-28T00:33:46;15.13;;;3.88;;
73456;SDS011;61691;53.072;6.582;2023-12-28T00:36:13;15.85;;;3.50;;
73456;SDS011;61691;53.072;6.582;2023-12-28T00:38:39;15.10;;;3.60;;
73456;SDS011;61691;53.072;6.582;2023-12-28T00:41:06;14.07;;;3.45;;
73456;SDS011;61691;53.072;6.582;2023-12-28T00:43:33;13.50;;;3.67;;
73456;SDS011;61691;53.072;6.582;2023-12-28T00:46:00;14.20;;;3.45;;
73456;SDS011;61691;53.072;6.582;2023-12-28T00:48:27;15.13;;;3.47;;
73456;SDS011;61691;53.072;6.582;2023-12-28T00:50:53;15.73;;;3.72;;
73456;SDS011;61691;53.072;6.582;2023-12-28T00:53:25;14.45;;;3.25;;
73456;SDS011;61691;53.072;6.582;2023-12-28T00:55:53;12.75;;;3.45;;
73456;SDS011;61691;53.072;6.582;2023-12-28T00:58:19;13.90;;;3.33;;
73456;SDS011;61691;53.072;6.582;2023-12-28T01:00:46;14.10;;;3.40;;
73456;SDS011;61691;53.072;6.582;2023-12-28T01:03:13;13.68;;;3.63;;
73456;SDS011;61691;53.072;6.582;2023-12-28T01:05:40;15.38;;;3.45;;
73456;SDS011;61691;53.072;6.582;2023-12-28T01:08:07;16.00;;;3.67;;
73456;SDS011;61691;53.072;6.582;2023-12-28T01:10:34;15.50;;;3.40;;
73456;SDS011;61691;53.072;6.582;2023-12-28T01:13:00;14.82;;;3.63;;
73456;SDS011;61691;53.072;6.582;2023-12-28T01:15:27;17.33;;;3.78;;
73456;SDS011;61691;53.072;6.582;2023-12-28T01:17:54;16.98;;;3.60;;
73456;SDS011;61691;53.072;6.582;2023-12-28T01:20:21;16.02;;;3.90;;
73456;SDS011;61691;53.072;6.582;2023-12-28T01:22:48;17.65;;;3.72;;
73456;SDS011;61691;53.072;6.582;2023-12-28T01:25:16;14.70;;;3.45;;
73456;SDS011;61691;53.072;6.582;2023-12-28T01:27:43;16.00;;;3.17;;
73456;SDS011;61691;53.072;6.582;2023-12-28T01:30:09;17.60;;;3.70;;
73456;SDS011;61691;53.072;6.582;2023-12-28T01:32:37;14.15;;;3.33;;
73456;SDS011;61691;53.072;6.582;2023-12-28T01:35:03;20.75;;;4.32;;
73456;SDS011;61691;53.072;6.582;2023-12-28T01:37:30;15.18;;;3.97;;
73456;SDS011;61691;53.072;6.582;2023-12-28T01:39:59;18.48;;;3.95;;
73456;SDS011;61691;53.072;6.582;2023-12-28T01:42:27;17.52;;;3.25;;
73456;SDS011;61691;53.072;6.582;2023-12-28T01:44:56;15.55;;;3.63;;
73456;SDS011;61691;53.072;6.582;2023-12-28T01:47:27;17.75;;;3.40;;
73456;SDS011;61691;53.072;6.582;2023-12-28T01:49:55;14.82;;;3.67;;
73456;SDS011;61691;53.072;6.582;2023-12-28T01:52:23;18.13;;;4.03;;
73456;SDS011;61691;53.072;6.582;2023-12-28T01:54:50;17.73;;;4.43;;
73456;SDS011;61691;53.072;6.582;2023-12-28T01:57:17;17.27;;;3.75;;
73456;SDS011;61691;53.072;6.582;2023-12-28T01:59:44;15.40;;;3.30;;
73456;SDS011;61691;53.072;6.582;2023-12-28T02:02:11;17.33;;;3.60;;
73456;SDS011;61691;53.072;6.582;2023-12-28T02:04:39;16.55;;;3.55;;
73456;SDS011;61691;53.072;6.582;2023-12-28T02:07:06;20.88;;;3.78;;
73456;SDS011;61691;53.072;6.582;2023-12-28T02:09:34;15.13;;;3.35;;
73456;SDS011;61691;53.072;6.582;2023-12-28T02:12:01;19.23;;;3.55;;
73456;SDS011;61691;53.072;6.582;2023-12-28T02:14:28;16.63;;;3.08;;
73456;SDS011;61691;53.072;6.582;2023-12-28T02:20:01;19.85;;;4.05;;
73456;SDS011;61691;53.072;6.582;2023-12-28T02:22:32;15.32;;;3.53;;
73456;SDS011;61691;53.072;6.582;2023-12-28T02:27:46;18.02;;;4.07;;
73456;SDS011;61691;53.072;6.582;2023-12-28T02:30:17;19.05;;;3.35;;
73456;SDS011;61691;53.072;6.582;2023-12-28T02:32:52;19.67;;;3.60;;
73456;SDS011;61691;53.072;6.582;2023-12-28T02:35:25;18.65;;;3.28;;
73456;SDS011;61691;53.072;6.582;2023-12-28T02:37:59;18.75;;;3.58;;
73456;SDS011;61691;53.072;6.582;2023-12-28T02:40:29;17.80;;;3.83;;
73456;SDS011;61691;53.072;6.582;2023-12-28T02:43:00;20.08;;;3.72;;
73456;SDS011;61691;53.072;6.582;2023-12-28T02:45:27;17.48;;;3.20;;
73456;SDS011;61691;53.072;6.582;2023-12-28T02:47:54;16.92;;;3.10;;
73456;SDS011;61691;53.072;6.582;2023-12-28T02:50:21;18.42;;;3.45;;
73456;SDS011;61691;53.072;6.582;2023-12-28T02:52:47;18.60;;;3.40;;
73456;SDS011;61691;53.072;6.582;2023-12-28T02:55:14;16.85;;;3.17;;
73456;SDS011;61691;53.072;6.582;2023-12-28T02:57:41;17.42;;;3.25;;
73456;SDS011;61691;53.072;6.582;2023-12-28T03:00:10;16.77;;;3.13;;
73456;SDS011;61691;53.072;6.582;2023-12-28T03:02:37;16.27;;;3.60;;
73456;SDS011;61691;53.072;6.582;2023-12-28T03:05:04;17.48;;;3.10;;
73456;SDS011;61691;53.072;6.582;2023-12-28T03:07:32;20.55;;;3.28;;
73456;SDS011;61691;53.072;6.582;2023-12-28T03:09:59;20.15;;;3.85;;
73456;SDS011;61691;53.072;6.582;2023-12-28T03:12:27;15.68;;;2.67;;
73456;SDS011;61691;53.072;6.582;2023-12-28T03:14:54;19.08;;;3.17;;
73456;SDS011;61691;53.072;6.582;2023-12-28T03:17:21;18.88;;;3.15;;
73456;SDS011;61691;53.072;6.582;2023-12-28T03:19:48;20.98;;;3.22;;
73456;SDS011;61691;53.072;6.582;2023-12-28T03:22:15;13.75;;;2.75;;
73456;SDS011;61691;53.072;6.582;2023-12-28T03:24:43;17.38;;;3.03;;
73456;SDS011;61691;53.072;6.582;2023-12-28T03:27:10;18.50;;;3.08;;
73456;SDS011;61691;53.072;6.582;2023-12-28T03:29:37;15.88;;;2.85;;
73456;SDS011;61691;53.072;6.582;2023-12-28T03:32:04;17.70;;;2.90;;
73456;SDS011;61691;53.072;6.582;2023-12-28T03:34:31;16.55;;;2.97;;
73456;SDS011;61691;53.072;6.582;2023-12-28T03:36:58;19.90;;;3.90;;
73456;SDS011;61691;53.072;6.582;2023-12-28T03:39:24;18.17;;;2.88;;
73456;SDS011;61691;53.072;6.582;2023-12-28T03:41:51;16.30;;;2.92;;
73456;SDS011;61691;53.072;6.582;2023-12-28T03:44:20;16.17;;;2.88;;
73456;SDS011;61691;53.072;6.582;2023-12-28T03:46:50;17.17;;;2.78;;
73456;SDS011;61691;53.072;6.582;2023-12-28T03:49:17;16.98;;;2.70;;
73456;SDS011;61691;53.072;6.582;2023-12-28T03:51:45;18.80;;;2.70;;
73456;SDS011;61691;53.072;6.582;2023-12-28T03:54:15;19.00;;;3.10;;
73456;SDS011;61691;53.072;6.582;2023-12-28T03:56:43;20.05;;;3.03;;
73456;SDS011;61691;53.072;6.582;2023-12-28T03:59:10;17.15;;;3.15;;
73456;SDS011;61691;53.072;6.582;2023-12-28T04:01:36;14.90;;;2.85;;
73456;SDS011;61691;53.072;6.582;2023-12-28T04:04:03;17.05;;;3.42;;
73456;SDS011;61691;53.072;6.582;2023-12-28T04:06:30;15.82;;;3.15;;
73456;SDS011;61691;53.072;6.582;2023-12-28T04:08:57;17.27;;;3.40;;
73456;SDS011;61691;53.072;6.582;2023-12-28T04:11:24;17.35;;;2.75;;
73456;SDS011;61691;53.072;6.582;2023-12-28T04:13:51;18.98;;;3.45;;
73456;SDS011;61691;53.072;6.582;2023-12-28T04:16:17;16.33;;;3.00;;
73456;SDS011;61691;53.072;6.582;2023-12-28T04:18:44;19.80;;;3.33;;
73456;SDS011;61691;53.072;6.582;2023-12-28T04:21:12;17.45;;;3.42;;
73456;SDS011;61691;53.072;6.582;2023-12-28T04:23:39;16.70;;;3.03;;
73456;SDS011;61691;53.072;6.582;2023-12-28T04:26:07;15.55;;;3.13;;
73456;SDS011;61691;53.072;6.582;2023-12-28T04:28:34;22.30;;;3.20;;
73456;SDS011;61691;53.072;6.582;2023-12-28T04:31:02;18.25;;;3.00;;
73456;SDS011;61691;53.072;6.582;2023-12-28T04:33:30;17.55;;;2.85;;
73456;SDS011;61691;53.072;6.582;2023-12-28T04:36:01;18.42;;;3.30;;
73456;SDS011;61691;53.072;6.582;2023-12-28T04:38:32;18.63;;;3.10;;
73456;SDS011;61691;53.072;6.582;2023-12-28T04:41:00;16.65;;;3.00;;
73456;SDS011;61691;53.072;6.582;2023-12-28T04:43:27;18.20;;;2.88;;
73456;SDS011;61691;53.072;6.582;2023-12-28T04:45:53;16.45;;;2.97;;
73456;SDS011;61691;53.072;6.582;2023-12-28T04:48:20;21.65;;;3.17;;
73456;SDS011;61691;53.072;6.582;2023-12-28T04:50:50;18.50;;;2.70;;
73456;SDS011;61691;53.072;6.582;2023-12-28T04:53:19;26.15;;;3.80;;
73456;SDS011;61691;53.072;6.582;2023-12-28T04:55:45;18.23;;;3.30;;
73456;SDS011;61691;53.072;6.582;2023-12-28T04:58:12;20.20;;;3.03;;
73456;SDS011;61691;53.072;6.582;2023-12-28T05:00:39;20.42;;;3.00;;
73456;SDS011;61691;53.072;6.582;2023-12-28T05:03:07;18.25;;;3.10;;
73456;SDS011;61691;53.072;6.582;2023-12-28T05:05:33;18.45;;;3.25;;
73456;SDS011;61691;53.072;6.582;2023-12-28T05:08:00;19.98;;;3.53;;
73456;SDS011;61691;53.072;6.582;2023-12-28T05:10:27;22.60;;;3.55;;
73456;SDS011;61691;53.072;6.582;2023-12-28T05:12:54;20.42;;;4.05;;
73456;SDS011;61691;53.072;6.582;2023-12-28T05:15:27;19.52;;;3.28;;
73456;SDS011;61691;53.072;6.582;2023-12-28T05:17:55;22.40;;;3.50;;
73456;SDS011;61691;53.072;6.582;2023-12-28T05:20:22;18.60;;;2.90;;
73456;SDS011;61691;53.072;6.582;2023-12-28T05:22:49;20.02;;;3.78;;
73456;SDS011;61691;53.072;6.582;2023-12-28T05:25:16;24.30;;;3.80;;
73456;SDS011;61691;53.072;6.582;2023-12-28T05:27:43;18.92;;;3.53;;
73456;SDS011;61691;53.072;6.582;2023-12-28T05:30:09;15.55;;;2.50;;
73456;SDS011;61691;53.072;6.582;2023-12-28T05:32:38;21.17;;;2.80;;
73456;SDS011;61691;53.072;6.582;2023-12-28T05:35:05;18.90;;;3.38;;
73456;SDS011;61691;53.072;6.582;2023-12-28T05:37:34;20.67;;;3.30;;
73456;SDS011;61691;53.072;6.582;2023-12-28T05:40:00;20.80;;;3.40;;
73456;SDS011;61691;53.072;6.582;2023-12-28T05:42:28;18.52;;;3.20;;
73456;SDS011;61691;53.072;6.582;2023-12-28T05:44:54;19.58;;;3.25;;
73456;SDS011;61691;53.072;6.582;2023-12-28T05:47:21;17.35;;;2.88;;
73456;SDS011;61691;53.072;6.582;2023-12-28T05:49:48;18.15;;;3.00;;
73456;SDS011;61691;53.072;6.582;2023-12-28T05:52:15;17.92;;;3.33;;
73456;SDS011;61691;53.072;6.582;2023-12-28T05:54:45;18.80;;;3.60;;
73456;SDS011;61691;53.072;6.582;2023-12-28T05:57:12;30.85;;;4.50;;
73456;SDS011;61691;53.072;6.582;2023-12-28T05:59:39;19.38;;;3.05;;
73456;SDS011;61691;53.072;6.582;2023-12-28T06:02:06;20.17;;;3.45;;
73456;SDS011;61691;53.072;6.582;2023-12-28T06:04:33;17.70;;;2.90;;
73456;SDS011;61691;53.072;6.582;2023-12-28T06:07:02;20.58;;;3.78;;
73456;SDS011;61691;53.072;6.582;2023-12-28T06:09:30;25.20;;;4.20;;
73456;SDS011;61691;53.072;6.582;2023-12-28T06:11:57;17.98;;;3.25;;
73456;SDS011;61691;53.072;6.582;2023-12-28T06:14:24;21.25;;;3.20;;
73456;SDS011;61691;53.072;6.582;2023-12-28T06:16:51;18.52;;;3.00;;
73456;SDS011;61691;53.072;6.582;2023-12-28T06:19:17;26.85;;;4.47;;
73456;SDS011;61691;53.072;6.582;2023-12-28T06:21:44;19.48;;;3.03;;
73456;SDS011;61691;53.072;6.582;2023-12-28T06:24:12;23.50;;;3.67;;
73456;SDS011;61691;53.072;6.582;2023-12-28T06:26:42;22.90;;;3.45;;
73456;SDS011;61691;53.072;6.582;2023-12-28T06:29:10;23.55;;;3.45;;
73456;SDS011;61691;53.072;6.582;2023-12-28T06:31:37;23.13;;;3.40;;
73456;SDS011;61691;53.072;6.582;2023-12-28T06:34:04;19.85;;;3.20;;
73456;SDS011;61691;53.072;6.582;2023-12-28T06:36:33;17.95;;;2.92;;
73456;SDS011;61691;53.072;6.582;2023-12-28T06:39:00;22.67;;;4.05;;
73456;SDS011;61691;53.072;6.582;2023-12-28T06:41:27;18.17;;;3.42;;
73456;SDS011;61691;53.072;6.582;2023-12-28T06:43:53;16.05;;;3.40;;
73456;SDS011;61691;53.072;6.582;2023-12-28T06:46:20;24.50;;;3.33;;
73456;SDS011;61691;53.072;6.582;2023-12-28T06:48:47;21.33;;;3.53;;
73456;SDS011;61691;53.072;6.582;2023-12-28T06:51:20;23.88;;;3.92;;
73456;SDS011;61691;53.072;6.582;2023-12-28T06:53:49;21.08;;;3.60;;
73456;SDS011;61691;53.072;6.582;2023-12-28T06:56:16;20.98;;;3.13;;
73456;SDS011;61691;53.072;6.582;2023-12-28T06:58:43;21.83;;;3.50;;
73456;SDS011;61691;53.072;6.582;2023-12-28T07:01:10;22.42;;;3.65;;
73456;SDS011;61691;53.072;6.582;2023-12-28T07:03:39;20.92;;;3.30;;
73456;SDS011;61691;53.072;6.582;2023-12-28T07:06:06;25.02;;;4.30;;
73456;SDS011;61691;53.072;6.582;2023-12-28T07:08:33;20.52;;;3.45;;
73456;SDS011;61691;53.072;6.582;2023-12-28T07:11:02;24.67;;;5.55;;
73456;SDS011;61691;53.072;6.582;2023-12-28T07:13:31;19.80;;;3.47;;
73456;SDS011;61691;53.072;6.582;2023-12-28T07:15:58;18.70;;;3.05;;
73456;SDS011;61691;53.072;6.582;2023-12-28T07:18:26;24.55;;;3.92;;
73456;SDS011;61691;53.072;6.582;2023-12-28T07:20:54;22.25;;;3.58;;
73456;SDS011;61691;53.072;6.582;2023-12-28T07:23:23;20.48;;;3.38;;
73456;SDS011;61691;53.072;6.582;2023-12-28T07:25:50;19.45;;;3.35;;
73456;SDS011;61691;53.072;6.582;2023-12-28T07:28:17;22.50;;;4.05;;
73456;SDS011;61691;53.072;6.582;2023-12-28T07:30:44;25.50;;;4.25;;
73456;SDS011;61691;53.072;6.582;2023-12-28T07:33:10;21.60;;;3.42;;
73456;SDS011;61691;53.072;6.582;2023-12-28T07:35:38;20.23;;;3.70;;
73456;SDS011;61691;53.072;6.582;2023-12-28T07:38:05;22.98;;;3.42;;
73456;SDS011;61691;53.072;6.582;2023-12-28T07:40:32;23.50;;;3.20;;
73456;SDS011;61691;53.072;6.582;2023-12-28T07:42:59;25.92;;;4.60;;
73456;SDS011;61691;53.072;6.582;2023-12-28T07:45:28;20.42;;;3.35;;
73456;SDS011;61691;53.072;6.582;2023-12-28T07:47:54;21.75;;;3.50;;
73456;SDS011;61691;53.072;6.582;2023-12-28T07:50:22;26.92;;;3.92;;
73456;SDS011;61691;53.072;6.582;2023-12-28T07:52:49;22.20;;;3.50;;
73456;SDS011;61691;53.072;6.582;2023-12-28T07:55:15;19.33;;;3.45;;
73456;SDS011;61691;53.072;6.582;2023-12-28T07:57:43;24.75;;;3.90;;
73456;SDS011;61691;53.072;6.582;2023-12-28T08:00:10;20.15;;;3.42;;
73456;SDS011;61691;53.072;6.582;2023-12-28T08:02:37;29.02;;;4.00;;
73456;SDS011;61691;53.072;6.582;2023-12-28T08:05:04;23.92;;;4.35;;
73456;SDS011;61691;53.072;6.582;2023-12-28T08:07:32;27.15;;;4.28;;
73456;SDS011;61691;53.072;6.582;2023-12-28T08:09:58;25.70;;;4.00;;
73456;SDS011;61691;53.072;6.582;2023-12-28T08:12:26;23.35;;;3.97;;
73456;SDS011;61691;53.072;6.582;2023-12-28T08:14:55;20.33;;;3.90;;
73456;SDS011;61691;53.072;6.582;2023-12-28T08:17:22;23.75;;;3.92;;
73456;SDS011;61691;53.072;6.582;2023-12-28T08:19:50;26.75;;;5.05;;
73456;SDS011;61691;53.072;6.582;2023-12-28T08:22:17;29.40;;;4.63;;
73456;SDS011;61691;53.072;6.582;2023-12-28T08:24:45;25.45;;;4.60;;
73456;SDS011;61691;53.072;6.582;2023-12-28T08:27:12;23.48;;;3.85;;
73456;SDS011;61691;53.072;6.582;2023-12-28T08:29:39;28.58;;;6.28;;
73456;SDS011;61691;53.072;6.582;2023-12-28T08:32:08;21.85;;;3.92;;
73456;SDS011;61691;53.072;6.582;2023-12-28T08:34:35;28.00;;;5.18;;
73456;SDS011;61691;53.072;6.582;2023-12-28T08:37:02;25.17;;;4.85;;
73456;SDS011;61691;53.072;6.582;2023-12-28T08:39:29;25.58;;;4.85;;
73456;SDS011;61691;53.072;6.582;2023-12-28T08:41:55;31.23;;;6.05;;
73456;SDS011;61691;53.072;6.582;2023-12-28T08:44:22;28.25;;;4.55;;
73456;SDS011;61691;53.072;6.582;2023-12-28T08:46:49;27.88;;;4.22;;
73456;SDS011;61691;53.072;6.582;2023-12-28T08:49:16;32.88;;;5.75;;
73456;SDS011;61691;53.072;6.582;2023-12-28T08:51:43;24.13;;;4.57;;
73456;SDS011;61691;53.072;6.582;2023-12-28T08:54:10;25.05;;;4.47;;
73456;SDS011;61691;53.072;6.582;2023-12-28T08:56:37;24.67;;;4.05;;
73456;SDS011;61691;53.072;6.582;2023-12-28T08:59:04;27.08;;;4.82;;
73456;SDS011;61691;53.072;6.582;2023-12-28T09:01:31;30.17;;;5.45;;
73456;SDS011;61691;53.072;6.582;2023-12-28T09:03:58;26.52;;;4.13;;
73456;SDS011;61691;53.072;6.582;2023-12-28T09:06:27;24.73;;;4.15;;
73456;SDS011;61691;53.072;6.582;2023-12-28T09:08:54;29.20;;;4.35;;
73456;SDS011;61691;53.072;6.582;2023-12-28T09:11:20;27.55;;;4.63;;
73456;SDS011;61691;53.072;6.582;2023-12-28T09:13:48;26.55;;;4.97;;
73456;SDS011;61691;53.072;6.582;2023-12-28T09:16:15;28.00;;;4.20;;
73456;SDS011;61691;53.072;6.582;2023-12-28T09:18:42;28.15;;;4.15;;
73456;SDS011;61691;53.072;6.582;2023-12-28T09:21:10;27.30;;;4.53;;
73456;SDS011;61691;53.072;6.582;2023-12-28T09:23:37;27.42;;;5.53;;
73456;SDS011;61691;53.072;6.582;2023-12-28T09:26:05;26.20;;;4.43;;
73456;SDS011;61691;53.072;6.582;2023-12-28T09:28:32;23.80;;;4.15;;
73456;SDS011;61691;53.072;6.582;2023-12-28T09:31:00;28.33;;;4.50;;
73456;SDS011;61691;53.072;6.582;2023-12-28T09:33:28;23.85;;;4.60;;
73456;SDS011;61691;53.072;6.582;2023-12-28T09:35:55;26.77;;;5.03;;
73456;SDS011;61691;53.072;6.582;2023-12-28T09:38:22;25.35;;;4.97;;
73456;SDS011;61691;53.072;6.582;2023-12-28T09:40:52;29.65;;;4.68;;
73456;SDS011;61691;53.072;6.582;2023-12-28T09:43:24;23.27;;;4.05;;
73456;SDS011;61691;53.072;6.582;2023-12-28T09:45:52;26.05;;;5.68;;
73456;SDS011;61691;53.072;6.582;2023-12-28T09:48:20;23.42;;;3.90;;
73456;SDS011;61691;53.072;6.582;2023-12-28T09:50:49;28.75;;;4.22;;
73456;SDS011;61691;53.072;6.582;2023-12-28T09:53:17;26.83;;;5.57;;
73456;SDS011;61691;53.072;6.582;2023-12-28T09:55:44;25.92;;;4.28;;
73456;SDS011;61691;53.072;6.582;2023-12-28T09:58:12;24.27;;;4.10;;
73456;SDS011;61691;53.072;6.582;2023-12-28T10:00:46;27.70;;;4.75;;
73456;SDS011;61691;53.072;6.582;2023-12-28T10:03:14;23.75;;;4.25;;
73456;SDS011;61691;53.072;6.582;2023-12-28T10:05:42;24.42;;;3.88;;
73456;SDS011;61691;53.072;6.582;2023-12-28T10:08:14;28.42;;;3.92;;
73456;SDS011;61691;53.072;6.582;2023-12-28T10:10:43;22.67;;;3.70;;
73456;SDS011;61691;53.072;6.582;2023-12-28T10:13:17;26.27;;;4.47;;
73456;SDS011;61691;53.072;6.582;2023-12-28T10:15:44;25.92;;;5.25;;
73456;SDS011;61691;53.072;6.582;2023-12-28T10:18:10;27.88;;;4.57;;
73456;SDS011;61691;53.072;6.582;2023-12-28T10:20:38;27.88;;;4.70;;
73456;SDS011;61691;53.072;6.582;2023-12-28T10:23:05;28.05;;;4.57;;
73456;SDS011;61691;53.072;6.582;2023-12-28T10:25:32;26.30;;;4.10;;
73456;SDS011;61691;53.072;6.582;2023-12-28T10:28:03;24.25;;;4.65;;
73456;SDS011;61691;53.072;6.582;2023-12-28T10:30:31;25.27;;;4.03;;
73456;SDS011;61691;53.072;6.582;2023-12-28T10:32:58;23.92;;;4.68;;
73456;SDS011;61691;53.072;6.582;2023-12-28T10:35:26;27.63;;;4.15;;
73456;SDS011;61691;53.072;6.582;2023-12-28T10:37:53;27.10;;;4.70;;
73456;SDS011;61691;53.072;6.582;2023-12-28T10:40:25;27.45;;;4.15;;
73456;SDS011;61691;53.072;6.582;2023-12-28T10:45:31;24.42;;;4.38;;
73456;SDS011;61691;53.072;6.582;2023-12-28T10:50:33;24.38;;;3.97;;
73456;SDS011;61691;53.072;6.582;2023-12-28T10:56:02;24.45;;;4.00;;
73456;SDS011;61691;53.072;6.582;2023-12-28T11:01:40;22.15;;;3.85;;
73456;SDS011;61691;53.072;6.582;2023-12-28T11:04:14;27.02;;;4.63;;
73456;SDS011;61691;53.072;6.582;2023-12-28T11:06:51;26.60;;;4.38;;
73456;SDS011;61691;53.072;6.582;2023-12-28T11:09:20;25.67;;;5.95;;
73456;SDS011;61691;53.072;6.582;2023-12-28T11:11:47;25.20;;;3.92;;
73456;SDS011;61691;53.072;6.582;2023-12-28T11:14:16;24.08;;;4.80;;
73456;SDS011;61691;53.072;6.582;2023-12-28T11:16:44;21.25;;;3.90;;
73456;SDS011;61691;53.072;6.582;2023-12-28T11:19:11;25.90;;;3.97;;
73456;SDS011;61691;53.072;6.582;2023-12-28T11:21:39;25.42;;;4.47;;
73456;SDS011;61691;53.072;6.582;2023-12-28T11:24:06;23.30;;;4.45;;
73456;SDS011;61691;53.072;6.582;2023-12-28T11:26:33;30.15;;;4.47;;
73456;SDS011;61691;53.072;6.582;2023-12-28T11:29:03;27.35;;;5.00;;
73456;SDS011;61691;53.072;6.582;2023-12-28T11:31:34;28.30;;;4.30;;
73456;SDS011;61691;53.072;6.582;2023-12-28T11:34:01;23.55;;;4.70;;
73456;SDS011;61691;53.072;6.582;2023-12-28T11:36:34;29.30;;;5.20;;
73456;SDS011;61691;53.072;6.582;2023-12-28T11:39:03;25.38;;;4.15;;
73456;SDS011;61691;53.072;6.582;2023-12-28T11:41:33;21.63;;;4.20;;
73456;SDS011;61691;53.072;6.582;2023-12-28T11:44:02;24.38;;;3.80;;
73456;SDS011;61691;53.072;6.582;2023-12-28T11:46:34;24.88;;;3.65;;
73456;SDS011;61691;53.072;6.582;2023-12-28T11:49:05;24.42;;;3.78;;
73456;SDS011;61691;53.072;6.582;2023-12-28T11:51:36;24.50;;;4.00;;
73456;SDS011;61691;53.072;6.582;2023-12-28T11:54:05;25.23;;;3.85;;
73456;SDS011;61691;53.072;6.582;2023-12-28T11:56:32;26.67;;;4.78;;
73456;SDS011;61691;53.072;6.582;2023-12-28T11:59:00;23.88;;;4.20;;
73456;SDS011;61691;53.072;6.582;2023-12-28T12:01:26;29.33;;;4.32;;
73456;SDS011;61691;53.072;6.582;2023-12-28T12:03:53;22.27;;;4.00;;
73456;SDS011;61691;53.072;6.582;2023-12-28T12:06:20;24.77;;;4.18;;
73456;SDS011;61691;53.072;6.582;2023-12-28T12:08:47;25.55;;;4.43;;
73456;SDS011;61691;53.072;6.582;2023-12-28T12:11:14;24.77;;;4.45;;
73456;SDS011;61691;53.072;6.582;2023-12-28T12:13:42;23.88;;;3.83;;
73456;SDS011;61691;53.072;6.582;2023-12-28T12:16:09;26.67;;;4.28;;
73456;SDS011;61691;53.072;6.582;2023-12-28T12:18:36;24.08;;;4.40;;
73456;SDS011;61691;53.072;6.582;2023-12-28T12:21:03;31.02;;;5.20;;
73456;SDS011;61691;53.072;6.582;2023-12-28T12:23:30;26.63;;;5.00;;
73456;SDS011;61691;53.072;6.582;2023-12-28T12:25:57;28.30;;;5.78;;
73456;SDS011;61691;53.072;6.582;2023-12-28T12:28:24;28.08;;;4.93;;
73456;SDS011;61691;53.072;6.582;2023-12-28T12:30:54;28.73;;;4.90;;
73456;SDS011;61691;53.072;6.582;2023-12-28T12:33:25;26.35;;;5.00;;
73456;SDS011;61691;53.072;6.582;2023-12-28T12:35:53;27.95;;;4.20;;
73456;SDS011;61691;53.072;6.582;2023-12-28T12:38:20;26.67;;;4.68;;
73456;SDS011;61691;53.072;6.582;2023-12-28T12:40:46;25.08;;;4.85;;
73456;SDS011;61691;53.072;6.582;2023-12-28T12:43:13;25.75;;;3.90;;
73456;SDS011;61691;53.072;6.582;2023-12-28T12:45:40;30.35;;;5.00;;
73456;SDS011;61691;53.072;6.582;2023-12-28T12:48:07;23.23;;;4.32;;
73456;SDS011;61691;53.072;6.582;2023-12-28T12:50:34;29.15;;;4.55;;
73456;SDS011;61691;53.072;6.582;2023-12-28T12:53:01;29.25;;;5.07;;
73456;SDS011;61691;53.072;6.582;2023-12-28T12:55:31;26.10;;;4.80;;
73456;SDS011;61691;53.072;6.582;2023-12-28T12:57:58;29.90;;;4.60;;
73456;SDS011;61691;53.072;6.582;2023-12-28T13:00:25;27.73;;;4.57;;
73456;SDS011;61691;53.072;6.582;2023-12-28T13:02:52;25.55;;;4.97;;
73456;SDS011;61691;53.072;6.582;2023-12-28T13:05:19;24.58;;;4.88;;
73456;SDS011;61691;53.072;6.582;2023-12-28T13:07:46;23.67;;;4.18;;
73456;SDS011;61691;53.072;6.582;2023-12-28T13:10:13;22.65;;;3.90;;
73456;SDS011;61691;53.072;6.582;2023-12-28T13:12:40;22.20;;;4.55;;
73456;SDS011;61691;53.072;6.582;2023-12-28T13:15:07;25.50;;;4.68;;
73456;SDS011;61691;53.072;6.582;2023-12-28T13:17:36;23.92;;;3.70;;
73456;SDS011;61691;53.072;6.582;2023-12-28T13:20:06;25.83;;;5.00;;
73456;SDS011;61691;53.072;6.582;2023-12-28T13:22:33;30.73;;;5.10;;
73456;SDS011;61691;53.072;6.582;2023-12-28T13:25:00;26.15;;;4.22;;
73456;SDS011;61691;53.072;6.582;2023-12-28T13:27:28;27.63;;;5.90;;
73456;SDS011;61691;53.072;6.582;2023-12-28T13:29:55;25.73;;;4.65;;
73456;SDS011;61691;53.072;6.582;2023-12-28T13:32:22;29.88;;;4.93;;
73456;SDS011;61691;53.072;6.582;2023-12-28T13:34:50;26.70;;;4.70;;
73456;SDS011;61691;53.072;6.582;2023-12-28T13:37:19;25.67;;;3.92;;
73456;SDS011;61691;53.072;6.582;2023-12-28T13:39:46;27.58;;;4.68;;
73456;SDS011;61691;53.072;6.582;2023-12-28T13:42:13;25.65;;;4.00;;
73456;SDS011;61691;53.072;6.582;2023-12-28T13:44:40;26.50;;;4.40;;
73456;SDS011;61691;53.072;6.582;2023-12-28T13:47:08;25.92;;;3.67;;
73456;SDS011;61691;53.072;6.582;2023-12-28T13:49:35;27.90;;;4.47;;
73456;SDS011;61691;53.072;6.582;2023-12-28T13:52:03;27.52;;;5.05;;
73456;SDS011;61691;53.072;6.582;2023-12-28T13:54:30;25.95;;;4.55;;
73456;SDS011;61691;53.072;6.582;2023-12-28T13:56:57;28.63;;;4.72;;
73456;SDS011;61691;53.072;6.582;2023-12-28T13:59:25;26.25;;;4.82;;
73456;SDS011;61691;53.072;6.582;2023-12-28T14:01:52;28.98;;;4.63;;
73456;SDS011;61691;53.072;6.582;2023-12-28T14:04:19;28.83;;;5.15;;
73456;SDS011;61691;53.072;6.582;2023-12-28T14:06:46;25.23;;;4.00;;
73456;SDS011;61691;53.072;6.582;2023-12-28T14:09:12;23.88;;;3.83;;
73456;SDS011;61691;53.072;6.582;2023-12-28T14:11:39;22.55;;;3.83;;
73456;SDS011;61691;53.072;6.582;2023-12-28T14:14:06;27.90;;;4.15;;
73456;SDS011;61691;53.072;6.582;2023-12-28T14:16:33;25.52;;;4.78;;
73456;SDS011;61691;53.072;6.582;2023-12-28T14:19:00;26.27;;;4.10;;
73456;SDS011;61691;53.072;6.582;2023-12-28T14:21:27;27.67;;;4.50;;
73456;SDS011;61691;53.072;6.582;2023-12-28T14:23:54;23.67;;;3.78;;
73456;SDS011;61691;53.072;6.582;2023-12-28T14:26:21;25.60;;;4.55;;
73456;SDS011;61691;53.072;6.582;2023-12-28T14:28:48;27.67;;;4.68;;
73456;SDS011;61691;53.072;6.582;2023-12-28T14:31:16;28.50;;;4.57;;
73456;SDS011;61691;53.072;6.582;2023-12-28T14:33:43;26.52;;;4.47;;
73456;SDS011;61691;53.072;6.582;2023-12-28T14:36:21;28.13;;;4.55;;
73456;SDS011;61691;53.072;6.582;2023-12-28T14:39:01;29.73;;;5.30;;
73456;SDS011;61691;53.072;6.582;2023-12-28T14:41:35;28.00;;;5.57;;
73456;SDS011;61691;53.072;6.582;2023-12-28T14:44:07;29.90;;;4.72;;
73456;SDS011;61691;53.072;6.582;2023-12-28T14:46:35;23.02;;;4.35;;
73456;SDS011;61691;53.072;6.582;2023-12-28T14:49:01;31.15;;;4.90;;
73456;SDS011;61691;53.072;6.582;2023-12-28T14:51:30;24.52;;;3.92;;
73456;SDS011;61691;53.072;6.582;2023-12-28T14:53:57;26.70;;;5.00;;